createdAt,value
2022-10-11T00:02:06.839Z,100.00
2022-10-11T00:04:33.203Z,100.00
2022-10-11T00:06:59.655Z,100.00
2022-10-11T00:09:26.088Z,100.00
2022-10-11T00:11:55.282Z,100.00
2022-10-11T00:14:21.990Z,100.00
2022-10-11T00:16:50.697Z,100.00
2022-10-11T00:19:17.258Z,100.00
2022-10-11T00:21:43.665Z,100.00
2022-10-11T00:24:10.062Z,100.00
2022-10-11T00:26:36.425Z,100.00
2022-10-11T00:29:02.803Z,100.00
2022-10-11T00:31:33.290Z,100.00
2022-10-11T00:34:01.775Z,100.00
2022-10-11T00:36:28.114Z,100.00
2022-10-11T00:38:54.486Z,100.00
2022-10-11T00:41:20.846Z,100.00
2022-10-11T00:43:47.233Z,100.00
2022-10-11T00:46:13.555Z,100.00
2022-10-11T00:48:40.924Z,100.00
2022-10-11T00:51:13.822Z,100.00
2022-10-11T00:53:40.176Z,100.00
2022-10-11T00:56:12.212Z,100.00
2022-10-11T00:58:38.553Z,100.00
2022-10-11T01:01:05.134Z,100.00
2022-10-11T01:03:34.459Z,100.00
2022-10-11T01:06:01.356Z,100.00
2022-10-11T01:08:28.007Z,100.00
2022-10-11T01:10:56.500Z,100.00
2022-10-11T01:13:22.823Z,100.00
2022-10-11T01:16:04.667Z,100.00
2022-10-11T01:18:34.902Z,100.00
2022-10-11T01:21:20.023Z,100.00
2022-10-11T01:23:55.642Z,100.00
2022-10-11T01:26:28.717Z,100.00
2022-10-11T01:29:03.593Z,100.00
2022-10-11T01:31:48.862Z,100.00
2022-10-11T01:34:17.213Z,100.00
2022-10-11T01:36:51.174Z,100.00
2022-10-11T01:39:36.208Z,100.00
2022-10-11T01:42:03.195Z,100.00
2022-10-11T01:44:29.535Z,100.00
2022-10-11T01:46:56.299Z,100.00
2022-10-11T01:49:22.619Z,100.00
2022-10-11T01:51:51.097Z,100.00
2022-10-11T01:54:23.491Z,100.00
2022-10-11T01:56:49.786Z,100.00
2022-10-11T01:59:36.385Z,100.00
2022-10-11T02:02:21.626Z,100.00
2022-10-11T02:05:06.336Z,100.00
2022-10-11T02:07:32.631Z,100.00
2022-10-11T02:10:11.310Z,100.00
2022-10-11T02:12:38.361Z,100.00
2022-10-11T02:15:06.924Z,100.00
2022-10-11T02:17:33.785Z,100.00
2022-10-11T02:20:00.316Z,100.00
2022-10-11T02:22:27.874Z,100.00
2022-10-11T02:24:56.039Z,100.00
2022-10-11T02:27:23.017Z,100.00
2022-10-11T02:29:49.497Z,100.00
2022-10-11T02:32:16.572Z,100.00
2022-10-11T02:34:47.592Z,100.00
2022-10-11T02:37:19.489Z,100.00
2022-10-11T02:39:46.588Z,100.00
2022-10-11T02:42:14.112Z,100.00
2022-10-11T02:44:41.358Z,100.00
2022-10-11T02:47:07.760Z,100.00
2022-10-11T02:49:34.435Z,100.00
2022-10-11T02:52:00.826Z,100.00
2022-10-11T02:54:27.215Z,100.00
2022-10-11T02:56:53.588Z,100.00
2022-10-11T02:59:20.157Z,100.00
2022-10-11T03:01:46.792Z,100.00
2022-10-11T03:04:13.213Z,100.00
2022-10-11T03:06:39.601Z,100.00
2022-10-11T03:09:05.951Z,100.00
2022-10-11T03:11:32.310Z,100.00
2022-10-11T03:13:58.666Z,100.00
2022-10-11T03:16:25.027Z,100.00
2022-10-11T03:18:51.380Z,100.00
2022-10-11T03:21:18.416Z,100.00
2022-10-11T03:23:44.798Z,100.00
2022-10-11T03:26:11.141Z,100.00
2022-10-11T03:28:37.650Z,100.00
2022-10-11T03:31:04.128Z,100.00
2022-10-11T03:33:30.472Z,100.00
2022-10-11T03:35:56.833Z,100.00
2022-10-11T03:38:23.206Z,100.00
2022-10-11T03:40:49.585Z,100.00
2022-10-11T03:43:16.128Z,100.00
2022-10-11T03:45:42.531Z,100.00
2022-10-11T03:48:08.944Z,100.00
2022-10-11T03:50:35.532Z,100.00
2022-10-11T03:53:01.919Z,100.00
2022-10-11T03:55:28.317Z,100.00
2022-10-11T03:57:54.701Z,100.00
2022-10-11T04:00:21.035Z,100.00
2022-10-11T04:02:47.383Z,100.00
2022-10-11T04:05:13.820Z,100.00
2022-10-11T04:07:40.259Z,100.00
2022-10-11T04:10:07.100Z,100.00
2022-10-11T04:12:33.491Z,100.00
2022-10-11T04:14:59.840Z,100.00
2022-10-11T04:17:26.187Z,100.00
2022-10-11T04:19:52.571Z,100.00
2022-10-11T04:22:18.961Z,100.00
2022-10-11T04:24:45.348Z,100.00
2022-10-11T04:27:11.719Z,100.00
2022-10-11T04:29:38.058Z,100.00
2022-10-11T04:32:04.434Z,100.00
2022-10-11T04:34:31.492Z,100.00
2022-10-11T04:36:57.866Z,100.00
2022-10-11T04:39:25.258Z,100.00
2022-10-11T04:41:51.638Z,100.00
2022-10-11T04:44:18.011Z,100.00
2022-10-11T04:46:44.380Z,100.00
2022-10-11T04:49:10.709Z,100.00
2022-10-11T04:51:37.090Z,100.00
2022-10-11T04:54:03.527Z,100.00
2022-10-11T04:56:30.596Z,100.00
2022-10-11T04:58:56.979Z,100.00
2022-10-11T05:01:23.315Z,100.00
2022-10-11T05:03:49.684Z,100.00
2022-10-11T05:06:16.128Z,100.00
2022-10-11T05:08:42.468Z,100.00
2022-10-11T05:11:10.833Z,100.00
2022-10-11T05:13:37.208Z,100.00
2022-10-11T05:16:07.098Z,100.00
2022-10-11T05:18:35.109Z,100.00
2022-10-11T05:21:04.642Z,100.00
2022-10-11T05:23:31.220Z,100.00
2022-10-11T05:25:57.681Z,100.00
2022-10-11T05:28:24.080Z,100.00
2022-10-11T05:30:50.470Z,100.00
2022-10-11T05:33:16.846Z,100.00
2022-10-11T05:35:43.273Z,100.00
2022-10-11T05:38:09.818Z,100.00
2022-10-11T05:40:39.143Z,100.00
2022-10-11T05:43:05.547Z,100.00
2022-10-11T05:45:32.953Z,100.00
2022-10-11T05:47:59.287Z,100.00
2022-10-11T05:50:25.640Z,100.00
2022-10-11T05:52:51.971Z,100.00
2022-10-11T05:55:18.447Z,100.00
2022-10-11T05:57:44.800Z,100.00
2022-10-11T06:00:11.320Z,100.00
2022-10-11T06:02:37.659Z,100.00
2022-10-11T06:05:04.100Z,100.00
2022-10-11T06:07:30.516Z,100.00
2022-10-11T06:09:56.957Z,100.00
2022-10-11T06:12:23.367Z,100.00
2022-10-11T06:14:50.093Z,100.00
2022-10-11T06:17:16.505Z,100.00
2022-10-11T06:19:43.603Z,100.00
2022-10-11T06:22:11.187Z,100.00
2022-10-11T06:24:37.524Z,100.00
2022-10-11T06:27:03.897Z,100.00
2022-10-11T06:29:30.208Z,100.00
2022-10-11T06:31:56.659Z,100.00
2022-10-11T06:34:23.213Z,100.00
2022-10-11T06:36:49.666Z,100.00
2022-10-11T06:39:16.101Z,100.00
2022-10-11T06:41:43.130Z,100.00
2022-10-11T06:44:14.257Z,100.00
2022-10-11T06:46:41.037Z,100.00
2022-10-11T06:49:07.441Z,100.00
2022-10-11T06:51:35.392Z,100.00
2022-10-11T06:54:01.944Z,100.00
2022-10-11T06:56:29.355Z,100.00
2022-10-11T06:58:56.613Z,100.00
2022-10-11T07:01:24.026Z,100.00
2022-10-11T07:03:54.335Z,100.00
2022-10-11T07:06:21.710Z,100.00
2022-10-11T07:08:48.181Z,100.00
2022-10-11T07:11:15.452Z,100.00
2022-10-11T07:13:41.950Z,100.00
2022-10-11T07:16:10.044Z,100.00
2022-10-11T07:18:36.666Z,100.00
2022-10-11T07:21:03.661Z,100.00
2022-10-11T07:23:30.374Z,100.00
2022-10-11T07:25:57.400Z,100.00
2022-10-11T07:28:23.998Z,100.00
2022-10-11T07:30:50.743Z,100.00
2022-10-11T07:33:17.128Z,100.00
2022-10-11T07:35:48.083Z,100.00
2022-10-11T07:38:15.164Z,100.00
2022-10-11T07:40:42.781Z,100.00
2022-10-11T07:43:09.632Z,100.00
2022-10-11T07:45:39.588Z,100.00
2022-10-11T07:48:06.098Z,100.00
2022-10-11T07:50:32.554Z,100.00
2022-10-11T07:52:58.890Z,100.00
2022-10-11T07:55:27.427Z,100.00
2022-10-11T07:57:57.210Z,100.00
2022-10-11T08:00:23.670Z,100.00
2022-10-11T08:02:50.233Z,100.00
2022-10-11T08:05:16.631Z,100.00
2022-10-11T08:07:43.107Z,100.00
2022-10-11T08:10:09.742Z,100.00
2022-10-11T08:12:36.113Z,100.00
2022-10-11T08:15:02.803Z,100.00
2022-10-11T08:17:29.595Z,100.00
2022-10-11T08:19:58.084Z,100.00
2022-10-11T08:22:24.445Z,100.00
2022-10-11T08:24:50.931Z,100.00
2022-10-11T08:27:17.280Z,100.00
2022-10-11T08:29:43.643Z,100.00
2022-10-11T08:32:12.105Z,100.00
2022-10-11T08:34:38.532Z,100.00
2022-10-11T08:37:05.307Z,100.00
2022-10-11T08:39:31.778Z,100.00
2022-10-11T08:42:10.994Z,100.00
2022-10-11T08:45:05.605Z,100.00
2022-10-11T08:47:24.964Z,100.00
2022-10-11T08:49:51.332Z,100.00
2022-10-11T08:52:24.987Z,100.00
2022-10-11T08:55:26.836Z,100.00
2022-10-11T08:57:53.879Z,100.00
2022-10-11T09:00:20.336Z,100.00
2022-10-11T09:03:09.752Z,100.00
2022-10-11T09:05:38.904Z,100.00
2022-10-11T09:08:05.243Z,100.00
2022-10-11T09:10:51.394Z,100.00
2022-10-11T09:13:41.634Z,100.00
2022-10-11T09:16:20.738Z,100.00
2022-10-11T09:19:05.959Z,95.77
2022-10-11T09:21:35.461Z,98.58
2022-10-11T09:24:02.003Z,100.00
2022-10-11T09:26:29.822Z,100.00
2022-10-11T09:29:01.150Z,100.00
2022-10-11T09:31:28.030Z,100.00
2022-10-11T09:33:54.370Z,100.00
2022-10-11T09:36:39.209Z,100.00
2022-10-11T09:39:11.602Z,100.00
2022-10-11T09:41:56.484Z,100.00
2022-10-11T09:44:23.479Z,100.00
2022-10-11T09:46:49.890Z,100.00
2022-10-11T09:49:16.792Z,100.00
2022-10-11T09:51:44.565Z,100.00
2022-10-11T09:54:10.967Z,100.00
2022-10-11T09:56:43.206Z,100.00
2022-10-11T09:59:27.186Z,100.00
2022-10-11T10:02:08.115Z,100.00
2022-10-11T10:04:34.517Z,100.00
2022-10-11T10:07:10.639Z,97.64
2022-10-11T10:09:37.039Z,96.49
2022-10-11T10:12:10.703Z,94.72
2022-10-11T10:14:37.329Z,91.98
2022-10-11T10:17:04.648Z,92.73
2022-10-11T10:19:43.896Z,95.32
2022-10-11T10:22:18.738Z,95.77
2022-10-11T10:24:45.181Z,96.32
2022-10-11T10:27:14.589Z,92.66
2022-10-11T10:29:41.281Z,91.10
2022-10-11T10:32:15.419Z,95.44
2022-10-11T10:34:50.147Z,87.25
2022-10-11T10:37:32.638Z,87.79
2022-10-11T10:40:09.206Z,88.22
2022-10-11T10:42:35.584Z,87.26
2022-10-11T10:45:01.947Z,83.23
2022-10-11T10:47:38.576Z,84.17
2022-10-11T10:50:25.767Z,83.93
2022-10-11T10:52:55.131Z,79.30
2022-10-11T10:55:29.073Z,81.97
2022-10-11T10:58:12.876Z,81.30
2022-10-11T11:00:43.267Z,85.89
2022-10-11T11:03:12.341Z,85.36
2022-10-11T11:05:59.485Z,82.90
2022-10-11T11:08:44.754Z,80.38
2022-10-11T11:11:14.145Z,82.75
2022-10-11T11:13:59.320Z,82.30
2022-10-11T11:16:31.985Z,84.07
2022-10-11T11:19:02.278Z,84.28
2022-10-11T11:21:48.859Z,86.08
2022-10-11T11:24:18.238Z,84.70
2022-10-11T11:26:46.870Z,83.30
2022-10-11T11:29:26.331Z,83.75
2022-10-11T11:31:59.091Z,78.17
2022-10-11T11:34:29.407Z,76.76
2022-10-11T11:36:56.651Z,81.31
2022-10-11T11:39:28.141Z,74.66
2022-10-11T11:41:57.771Z,74.13
2022-10-11T11:44:44.385Z,71.35
2022-10-11T11:47:12.059Z,73.06
2022-10-11T11:49:45.380Z,73.68
2022-10-11T11:52:13.451Z,75.40
2022-10-11T11:54:57.267Z,71.73
2022-10-11T11:57:36.212Z,74.66
2022-10-11T12:00:07.256Z,75.48
2022-10-11T12:02:42.577Z,74.28
2022-10-11T12:05:13.014Z,75.28
2022-10-11T12:08:06.127Z,75.00
2022-10-11T12:10:35.721Z,75.51
2022-10-11T12:13:03.008Z,72.78
2022-10-11T12:15:29.398Z,70.76
2022-10-11T12:17:59.246Z,72.28
2022-10-11T12:20:28.700Z,69.43
2022-10-11T12:23:05.184Z,70.93
2022-10-11T12:25:35.714Z,70.94
2022-10-11T12:28:04.025Z,71.70
2022-10-11T12:30:42.643Z,68.01
2022-10-11T12:33:25.296Z,73.25
2022-10-11T12:35:54.787Z,69.66
2022-10-11T12:38:22.602Z,65.91
2022-10-11T12:40:50.043Z,63.83
2022-10-11T12:43:16.374Z,64.68
2022-10-11T12:45:47.805Z,61.59
2022-10-11T12:48:36.023Z,64.99
2022-10-11T12:51:21.532Z,61.75
2022-10-11T12:54:25.453Z,60.37
2022-10-11T12:56:58.523Z,64.60
2022-10-11T12:59:24.983Z,65.00
2022-10-11T13:01:52.042Z,64.76
2022-10-11T13:04:19.247Z,63.73
2022-10-11T13:06:53.749Z,64.55
2022-10-11T13:09:25.249Z,63.43
2022-10-11T13:11:56.676Z,64.83
2022-10-11T13:14:23.999Z,67.04
2022-10-11T13:16:55.584Z,63.73
2022-10-11T13:19:22.103Z,63.51
2022-10-11T13:21:50.227Z,64.61
2022-10-11T13:24:17.178Z,64.41
2022-10-11T13:26:44.145Z,64.31
2022-10-11T13:29:12.622Z,66.93
2022-10-11T13:31:40.161Z,67.15
2022-10-11T13:34:06.490Z,66.52
2022-10-11T13:36:32.912Z,66.09
2022-10-11T13:38:59.874Z,64.90
2022-10-11T13:41:29.330Z,67.85
2022-10-11T13:43:56.184Z,61.50
2022-10-11T13:46:23.691Z,59.59
2022-10-11T13:49:00.277Z,60.20
2022-10-11T13:51:26.648Z,64.44
2022-10-11T13:53:56.846Z,61.85
2022-10-11T13:56:23.509Z,63.75
2022-10-11T13:58:49.921Z,59.76
2022-10-11T14:01:23.564Z,61.73
2022-10-11T14:03:54.137Z,60.98
2022-10-11T14:06:20.547Z,64.48
2022-10-11T14:08:51.166Z,65.51
2022-10-11T14:11:20.975Z,62.64
2022-10-11T14:13:47.763Z,65.60
2022-10-11T14:16:28.088Z,67.76
2022-10-11T14:18:57.685Z,70.16
2022-10-11T14:21:43.295Z,74.23
2022-10-11T14:24:12.943Z,75.18
2022-10-11T14:26:40.077Z,79.11
2022-10-11T14:29:26.631Z,82.09
2022-10-11T14:31:56.340Z,82.48
2022-10-11T14:34:23.534Z,82.27
2022-10-11T14:36:50.584Z,83.13
2022-10-11T14:39:17.856Z,82.42
2022-10-11T14:41:44.250Z,85.00
2022-10-11T14:44:10.685Z,85.34
2022-10-11T14:46:38.665Z,86.57
2022-10-11T14:49:12.461Z,86.36
2022-10-11T14:51:39.138Z,87.67
2022-10-11T14:54:05.753Z,89.19
2022-10-11T14:56:32.334Z,89.55
2022-10-11T14:58:58.822Z,86.84
2022-10-11T15:01:25.269Z,88.96
2022-10-11T15:03:51.683Z,90.24
2022-10-11T15:06:19.141Z,90.57
2022-10-11T15:08:45.970Z,94.70
2022-10-11T15:11:13.198Z,94.30
2022-10-11T15:13:39.797Z,94.74
2022-10-11T15:16:06.866Z,93.69
2022-10-11T15:18:33.625Z,93.39
2022-10-11T15:21:00.650Z,95.32
2022-10-11T15:23:27.129Z,98.76
2022-10-11T15:25:53.593Z,94.76
2022-10-11T15:28:23.812Z,95.29
2022-10-11T15:30:50.592Z,99.41
2022-10-11T15:33:17.022Z,97.20
2022-10-11T15:35:43.470Z,96.14
2022-10-11T15:38:13.557Z,96.30
2022-10-11T15:40:40.005Z,93.91
2022-10-11T15:43:06.434Z,95.82
2022-10-11T15:45:32.870Z,97.42
2022-10-11T15:47:59.707Z,98.41
2022-10-11T15:50:41.487Z,99.57
2022-10-11T15:53:08.767Z,99.47
2022-10-11T15:55:35.717Z,99.73
2022-10-11T15:58:02.403Z,100.00
2022-10-11T16:00:29.032Z,100.00
2022-10-11T16:02:55.558Z,100.00
2022-10-11T16:05:22.268Z,100.00
2022-10-11T16:07:48.710Z,100.00
2022-10-11T16:10:15.168Z,100.00
2022-10-11T16:12:41.598Z,100.00
2022-10-11T16:15:08.116Z,100.00
2022-10-11T16:17:34.526Z,100.00
2022-10-11T16:20:01.026Z,100.00
2022-10-11T16:22:27.785Z,100.00
2022-10-11T16:24:54.202Z,100.00
2022-10-11T16:27:20.717Z,100.00
2022-10-11T16:29:47.195Z,100.00
2022-10-11T16:32:13.691Z,100.00
2022-10-11T16:34:40.117Z,100.00
2022-10-11T16:37:06.547Z,100.00
2022-10-11T16:39:33.296Z,100.00
2022-10-11T16:41:59.784Z,100.00
2022-10-11T16:44:27.953Z,100.00
2022-10-11T16:46:55.150Z,100.00
2022-10-11T16:49:25.294Z,100.00
2022-10-11T16:51:52.037Z,100.00
2022-10-11T16:54:20.410Z,100.00
2022-10-11T16:56:47.654Z,100.00
2022-10-11T16:59:14.059Z,100.00
2022-10-11T17:01:40.520Z,100.00
2022-10-11T17:04:06.937Z,100.00
2022-10-11T17:06:33.321Z,100.00
2022-10-11T17:08:59.738Z,100.00
2022-10-11T17:11:26.162Z,100.00
2022-10-11T17:13:53.518Z,100.00
2022-10-11T17:16:20.579Z,100.00
2022-10-11T17:18:47.090Z,100.00
2022-10-11T17:21:14.129Z,100.00
2022-10-11T17:23:40.659Z,100.00
2022-10-11T17:26:11.257Z,100.00
2022-10-11T17:28:38.237Z,100.00
2022-10-11T17:31:05.046Z,100.00
2022-10-11T17:33:32.026Z,100.00
2022-10-11T17:35:58.880Z,100.00
2022-10-11T17:38:28.405Z,100.00
2022-10-11T17:41:01.338Z,100.00
2022-10-11T17:43:30.737Z,100.00
2022-10-11T17:46:00.939Z,100.00
2022-10-11T17:48:27.327Z,100.00
2022-10-11T17:50:53.907Z,100.00
2022-10-11T17:53:20.469Z,100.00
2022-10-11T17:55:47.030Z,100.00
2022-10-11T17:58:13.533Z,100.00
2022-10-11T18:00:40.010Z,100.00
2022-10-11T18:03:06.538Z,100.00
2022-10-11T18:05:32.933Z,100.00
2022-10-11T18:08:00.001Z,100.00
2022-10-11T18:10:27.255Z,100.00
2022-10-11T18:12:54.022Z,100.00
2022-10-11T18:15:20.471Z,100.00
2022-10-11T18:17:47.927Z,100.00
2022-10-11T18:20:14.543Z,100.00
2022-10-11T18:22:41.065Z,100.00
2022-10-11T18:25:07.862Z,100.00
2022-10-11T18:27:34.397Z,100.00
2022-10-11T18:30:00.803Z,100.00
2022-10-11T18:32:27.159Z,100.00
2022-10-11T18:34:54.772Z,100.00
2022-10-11T18:37:21.251Z,100.00
2022-10-11T18:39:47.896Z,100.00
2022-10-11T18:42:14.454Z,100.00
2022-10-11T18:44:40.868Z,100.00
2022-10-11T18:47:07.270Z,100.00
2022-10-11T18:49:33.636Z,100.00
2022-10-11T18:52:00.007Z,100.00
2022-10-11T18:54:26.523Z,100.00
2022-10-11T18:56:53.101Z,100.00
2022-10-11T18:59:20.357Z,100.00
2022-10-11T19:01:48.045Z,100.00
2022-10-11T19:04:15.955Z,100.00
2022-10-11T19:06:43.153Z,100.00
2022-10-11T19:09:10.506Z,100.00
2022-10-11T19:11:37.105Z,100.00
2022-10-11T19:14:08.377Z,100.00
2022-10-11T19:16:35.403Z,100.00
2022-10-11T19:19:01.832Z,100.00
2022-10-11T19:21:28.212Z,100.00
2022-10-11T19:23:54.857Z,100.00
2022-10-11T19:26:22.405Z,100.00
2022-10-11T19:28:48.976Z,100.00
2022-10-11T19:31:16.884Z,100.00
2022-10-11T19:33:44.408Z,100.00
2022-10-11T19:36:11.201Z,100.00
2022-10-11T19:38:37.700Z,100.00
2022-10-11T19:41:04.638Z,100.00
2022-10-11T19:43:31.364Z,100.00
2022-10-11T19:46:03.740Z,100.00
2022-10-11T19:48:30.221Z,100.00
2022-10-11T19:51:03.965Z,100.00
2022-10-11T19:53:30.485Z,100.00
2022-10-11T19:55:59.579Z,100.00
2022-10-11T19:58:26.065Z,100.00
2022-10-11T20:00:59.590Z,100.00
2022-10-11T20:03:26.080Z,100.00
2022-10-11T20:05:52.430Z,100.00
2022-10-11T20:08:18.887Z,100.00
2022-10-11T20:10:45.251Z,100.00
2022-10-11T20:13:12.054Z,100.00
2022-10-11T20:15:38.604Z,100.00
2022-10-11T20:18:05.179Z,100.00
2022-10-11T20:20:32.384Z,100.00
2022-10-11T20:22:58.842Z,100.00
2022-10-11T20:25:25.245Z,100.00
2022-10-11T20:27:51.669Z,100.00
2022-10-11T20:30:18.460Z,100.00
2022-10-11T20:32:44.892Z,100.00
2022-10-11T20:35:11.600Z,100.00
2022-10-11T20:37:38.091Z,100.00
2022-10-11T20:40:04.652Z,100.00
2022-10-11T20:42:31.048Z,100.00
2022-10-11T20:44:58.767Z,100.00
2022-10-11T20:47:25.144Z,100.00
2022-10-11T20:49:51.581Z,100.00
2022-10-11T20:52:17.973Z,100.00
2022-10-11T20:54:44.399Z,100.00
2022-10-11T20:57:10.757Z,100.00
2022-10-11T20:59:37.912Z,100.00
2022-10-11T21:02:04.372Z,100.00
2022-10-11T21:04:30.837Z,100.00
2022-10-11T21:06:57.340Z,100.00
2022-10-11T21:09:23.952Z,100.00
2022-10-11T21:11:50.343Z,100.00
2022-10-11T21:14:17.271Z,100.00
2022-10-11T21:16:43.745Z,100.00
2022-10-11T21:19:11.772Z,100.00
2022-10-11T21:21:38.268Z,100.00
2022-10-11T21:24:04.781Z,100.00
2022-10-11T21:26:31.222Z,100.00
2022-10-11T21:28:59.354Z,100.00
2022-10-11T21:31:29.771Z,100.00
2022-10-11T21:33:59.266Z,100.00
2022-10-11T21:36:25.912Z,100.00
2022-10-11T21:38:52.640Z,100.00
2022-10-11T21:41:19.938Z,100.00
2022-10-11T21:43:47.141Z,100.00
2022-10-11T21:46:17.655Z,100.00
2022-10-11T21:48:44.159Z,100.00
2022-10-11T21:53:40.933Z,100.00
2022-10-11T21:56:07.328Z,100.00
2022-10-11T21:58:33.698Z,100.00
2022-10-11T22:01:00.164Z,100.00
2022-10-11T22:03:26.587Z,100.00
2022-10-11T22:05:52.956Z,100.00
2022-10-11T22:08:19.807Z,100.00
2022-10-11T22:10:52.643Z,100.00
2022-10-11T22:13:19.178Z,100.00
2022-10-11T22:15:45.752Z,100.00
2022-10-11T22:18:12.215Z,100.00
2022-10-11T22:20:38.652Z,100.00
2022-10-11T22:23:05.068Z,100.00
2022-10-11T22:25:34.128Z,100.00
2022-10-11T22:28:00.469Z,100.00
2022-10-11T22:30:26.925Z,100.00
2022-10-11T22:32:53.343Z,100.00
2022-10-11T22:35:19.759Z,100.00
2022-10-11T22:37:46.163Z,100.00
2022-10-11T22:40:12.592Z,100.00
2022-10-11T22:42:38.979Z,100.00
2022-10-11T22:45:05.579Z,100.00
2022-10-11T22:47:32.019Z,100.00
2022-10-11T22:49:58.637Z,100.00
2022-10-11T22:52:25.174Z,100.00
2022-10-11T22:54:51.954Z,100.00
2022-10-11T22:57:18.696Z,100.00
2022-10-11T22:59:45.076Z,100.00
2022-10-11T23:02:11.449Z,100.00
2022-10-11T23:04:37.914Z,100.00
2022-10-11T23:07:05.232Z,100.00
2022-10-11T23:09:31.861Z,100.00
2022-10-11T23:11:58.793Z,100.00
2022-10-11T23:14:25.170Z,100.00
2022-10-11T23:16:52.188Z,100.00
2022-10-11T23:19:18.690Z,100.00
2022-10-11T23:21:45.112Z,100.00
2022-10-11T23:24:11.482Z,100.00
2022-10-11T23:26:37.894Z,100.00
2022-10-11T23:29:04.318Z,100.00
2022-10-11T23:31:30.901Z,100.00
2022-10-11T23:33:57.860Z,100.00
2022-10-11T23:36:24.938Z,100.00
2022-10-11T23:38:58.291Z,100.00
2022-10-11T23:41:25.554Z,100.00
2022-10-11T23:43:52.127Z,100.00
2022-10-11T23:46:18.564Z,100.00
2022-10-11T23:48:45.066Z,100.00
2022-10-11T23:51:11.629Z,100.00
2022-10-11T23:53:38.252Z,100.00
2022-10-11T23:56:06.665Z,100.00
2022-10-11T23:58:33.237Z,100.00
